Flight Track Log - Related Links

Times and Time Zones

All times are in EDT time to prevent confusion due to time zone crossing. See the EJA922 flight status page for this flight to view local times or setup timezone preferences in your user account.

Time Position Orientation Groundspeed Altitude Reporting Facility
EDT Latitude Longitude Course Direction KTS MPH feet Rate Location/Type
Mon 06:04:48 AM 36.1333 -86.7000 287° West 196 226 1,400  Level Nashville TRACON
Mon 06:05:54 AM 36.1500 -86.7667 287° West 239 275 5,900 4,190 Climbing Nashville TRACON
Mon 06:06:54 AM 36.2167 -86.7833 349° North 259 298 10,200 3,600 Climbing Nashville TRACON
Mon 06:07:54 AM 36.2667 -86.7000 53° Northeast 328 377 13,100 2,050 Climbing Nashville TRACON
Mon 06:08:54 AM 36.3167 -86.5833 62° Northeast 414 476 14,300 1,134 Climbing Nashville TRACON
Mon 06:10:38 AM 36.4261 -86.3775 56° Northeast 438 504 16,200 1,134 Climbing Memphis Center
Mon 06:11:38 AM 36.4844 -86.2481 61° Northeast 438 504 17,400 1,108 Climbing Memphis Center
Mon 06:12:48 AM 36.5547 -86.0964 60° Northeast 441 507 18,600 1,108 Climbing Indianapolis Center
Mon 06:13:48 AM 36.6150 -85.9608 61° Northeast 444 511 19,800 1,200 Climbing Indianapolis Center
Mon 06:14:48 AM 36.6747 -85.8256 61° Northeast 443 510 21,000 1,140 Climbing Indianapolis Center
Mon 06:15:49 AM 36.7303 -85.6989 61° Northeast 441 507 22,100 1,190 Climbing Indianapolis Center
Mon 06:16:49 AM 36.7925 -85.5547 62° Northeast 443 510 23,400 1,190 Climbing Indianapolis Center
Mon 06:17:50 AM 36.8475 -85.4275 62° Northeast 443 510 24,500 793 Climbing Indianapolis Center
Mon 06:18:50 AM 36.9083 -85.2878 61° Northeast 454 522 25,000 248 Climbing Indianapolis Center
Mon 06:19:51 AM 36.9708 -85.1433 62° Northeast 468 539 25,000  Level Indianapolis Center
Mon 06:20:51 AM 37.0408 -84.9803 62° Northeast 485 558 25,000  Level Indianapolis Center
Mon 06:21:52 AM 37.1044 -84.8297 62° Northeast 487 560 25,000  Level Indianapolis Center
Mon 06:22:52 AM 37.1672 -84.6828 62° Northeast 480 552 25,000  Level Indianapolis Center
Mon 06:23:53 AM 37.2306 -84.5356 62° Northeast 479 551 25,000  Level Indianapolis Center
Mon 06:24:53 AM 37.2914 -84.3886 62° Northeast 474 545 25,000  Level Indianapolis Center
Mon 06:25:54 AM 37.3528 -84.2431 62° Northeast 470 541 25,000  Level Indianapolis Center
Mon 06:26:54 AM 37.4147 -84.0947 62° Northeast 474 545 25,000 -496 Level Indianapolis Center
Mon 06:27:55 AM 37.4769 -83.9458 62° Northeast 478 550 24,000 -992 Descending Indianapolis Center
Mon 06:28:55 AM 37.5394 -83.7950 62° Northeast 483 556 23,000 -496 Descending Indianapolis Center
Mon 06:29:56 AM 37.6008 -83.6469 62° Northeast 477 549 23,000  Level Indianapolis Center
Mon 06:30:57 AM 37.6608 -83.4994 63° Northeast 472 543 23,000  Level Indianapolis Center
Mon 06:31:57 AM 37.7203 -83.3536 63° Northeast 467 537 23,000  Level Indianapolis Center
Mon 06:32:58 AM 37.7811 -83.2053 63° Northeast 470 541 23,000  Level Indianapolis Center
Mon 06:33:58 AM 37.8422 -83.0506 63° Northeast 485 558 23,000 -248 Level Indianapolis Center
Mon 06:34:59 AM 37.9017 -82.9075 62° Northeast 465 535 22,500 -1,377 Descending Indianapolis Center
Mon 06:36:00 AM 37.9619 -82.7547 63° Northeast 479 551 20,200 -2,331 Descending Indianapolis Center
Mon 06:37:00 AM 38.0192 -82.6103 63° Northeast 461 531 17,800 -2,132 Descending Indianapolis Center
Mon 06:38:01 AM 38.0753 -82.4722 63° Northeast 442 509 15,900 -2,016 Descending Indianapolis Center
Mon 06:39:02 AM 38.1317 -82.3258 64° Northeast 437 503 13,700 -2,083 Descending Indianapolis Center
Mon 06:40:02 AM 38.1836 -82.1928 64° Northeast 422 486 11,700 -1,537 Descending Indianapolis Center
Mon 06:41:03 AM 38.2297 -82.0789 63° Northeast 355 409 10,600 -1,082 Descending Indianapolis Center
Mon 06:42:04 AM 38.2561 -81.9786 71° East 314 361 9,500 -1,623 Descending Indianapolis Center
Mon 06:43:05 AM 38.2242 -81.8861 114° Southeast 290 334 7,300 -2,430 Descending Indianapolis Center
Mon 06:44:05 AM 38.2269 -81.7947 88° East 276 318 4,600 -2,132 Descending Indianapolis Center
Mon 06:45:06 AM 38.2769 -81.7239 48° Northeast 271 312 3,000 -1,082 Descending Indianapolis Center
Mon 06:46:07 AM 38.3222 -81.6656 45° Northeast 242 278 2,400 -738 Descending Indianapolis Center
Mon 06:47:08 AM 38.3533 -81.6253 45° Northeast 193 222 1,500 -545 Descending Indianapolis Center
Mon 06:48:08 AM 38.3839 -81.5886 43° Northeast 185 213 1,300 -200 Descending Indianapolis Center
Mon 06:50:00 AM 38.3759 -81.5930 180° South  Level Estimated
Mon 06:57:00 AM 38.3759 -81.5930 180° South  Level Estimated

Login

Don't have an account? Register now (free) for customized features, flight alerts, and more!